X  Sluiten METAR luchtvaart weer gegevens      EBBR Brussels Airport
Temperatuur
9°C Temperatuur
6°C Dauwpunt
82% Vochtigheid



Wind
35 KM/U
22 MPH
10 M/S
19 KTS



210°
ZZW
Huidig weer

Lichte Showers, Regen Lichte Showers, Regen
Luchtdruk 982.92 (hPa) - 29.03 (inHg)
Zicht 6.2 (mijl) - 10 (km)
Vliegveld
Vliegveld code EBBR

Locatie : Brussels Airport
Afstand: 14 (km)

Metar:
EBBR 212220Z 21019KT 9999 -SHRA FEW016 BKN025 09/06 Q0983 TEMPO 21020G30KT 2500 +SHRA BKN014TCU BECMG 29012KT

Tijd: 2021-01-21 23:20 CET